PWSweather.com
Personal Weather Stations
Station Observations
KIDJEROME
Sse Jerome Butte , Jerome, ID 83338

Sse Jerome Butte Jerome, ID 83338

Lat: 42.6981891, Lon: -114.4041362

Elevation: 3960

Station Type: Davis Vantage Pro 2

Latest ConditionsUpdated 2:00:00 PM MDT Tuesday, May 21, 2019
Currently Today's Max Today's Min Today's Average
Temperature 48.5°F9.2°C 48.8°F9.3°C 43.4°F6.3°C 45.9°F7.7°C
Dew Point 42.6°F5.9°C 45.4°F7.4°C 42.0°F5.6°C 43.4°F6.3°C
Winds 10.0 mph WSW16.1 kmh WSW 11.0 mph -17.7 kmh - - 7.0 mph 11.3 kmh
Wind Gusts 14.0 mph22.5 kmh 16.0 mph25.7 kmh - -
Humidity 80% 95% 80% 91%
Pressure 29.51 in999.3 mb 29.57 in1001.4 mb 29.51 in999.3 mb -
Precipitation - 0.07 in1.8 mm - -
Hour Temp Dew Point Humidity Winds Wind Gusts Pressure Precip Precip Rate Daily Precip Total
02:00 PM 48.5°F9.2°C 42.6°F5.9°C 80% 10.0 mph WSW16.1 kmh WSW 14.0 mph22.5 kmh 29.51 in999.3 mb 0.00 in0.0 mm 0.00 in0.0 mm 0.07 in1.8 mm
01:45 PM 48.5°F9.2°C 42.6°F5.9°C 80% 10.0 mph WSW16.1 kmh WSW 14.0 mph22.5 kmh 29.51 in999.3 mb 0.00 in0.0 mm 0.00 in0.0 mm 0.07 in1.8 mm
01:30 PM 48.5°F9.2°C 42.6°F5.9°C 80% 10.0 mph WSW16.1 kmh WSW 14.0 mph22.5 kmh 29.51 in999.3 mb 0.00 in0.0 mm 0.00 in0.0 mm 0.07 in1.8 mm
01:15 PM 48.5°F9.2°C 42.6°F5.9°C 80% 10.0 mph WSW16.1 kmh WSW 14.0 mph22.5 kmh 29.51 in999.3 mb 0.00 in0.0 mm 0.00 in0.0 mm 0.07 in1.8 mm
01:00 PM 48.5°F9.2°C 42.6°F5.9°C 80% 10.0 mph WSW16.1 kmh WSW 14.0 mph22.5 kmh 29.52 in999.7 mb 0.00 in0.0 mm 0.00 in0.0 mm 0.07 in1.8 mm
12:45 PM 48.5°F9.2°C 42.9°F6.1°C 81% 10.0 mph WSW16.1 kmh WSW 13.0 mph20.9 kmh 29.53 in1000.0 mb 0.00 in0.0 mm 0.00 in0.0 mm 0.07 in1.8 mm
12:30 PM 48.6°F9.2°C 43.7°F6.5°C 83% 10.0 mph WSW16.1 kmh WSW 14.0 mph22.5 kmh 29.53 in1000.0 mb 0.00 in0.0 mm 0.00 in0.0 mm 0.07 in1.8 mm
12:15 PM 48.3°F9.1°C 43.1°F6.2°C 82% 10.0 mph WSW16.1 kmh WSW 14.0 mph22.5 kmh 29.53 in1000.0 mb 0.00 in0.0 mm 0.00 in0.0 mm 0.07 in1.8 mm
12:00 PM 48.8°F9.3°C 43.9°F6.6°C 83% 10.0 mph WSW16.1 kmh WSW 15.0 mph24.1 kmh 29.53 in1000.0 mb 0.00 in0.0 mm 0.00 in0.0 mm 0.07 in1.8 mm
11:45 AM 48.7°F9.3°C 42.8°F6.0°C 80% 9.0 mph W14.5 kmh W 14.0 mph22.5 kmh 29.53 in1000.0 mb 0.00 in0.0 mm 0.00 in0.0 mm 0.07 in1.8 mm
11:30 AM 48.0°F8.9°C 43.1°F6.2°C 83% 9.0 mph W14.5 kmh W 14.0 mph22.5 kmh 29.54 in1000.3 mb 0.00 in0.0 mm 0.00 in0.0 mm 0.07 in1.8 mm
11:15 AM 47.2°F8.4°C 42.0°F5.6°C 82% 10.0 mph W16.1 kmh W 16.0 mph25.7 kmh 29.54 in1000.3 mb 0.00 in0.0 mm 0.00 in0.0 mm 0.07 in1.8 mm
11:00 AM 46.7°F8.2°C 43.3°F6.3°C 88% 10.0 mph W16.1 kmh W 15.0 mph24.1 kmh 29.55 in1000.7 mb 0.00 in0.0 mm 0.00 in0.0 mm 0.07 in1.8 mm
10:45 AM 45.9°F7.7°C 42.8°F6.0°C 89% 10.0 mph W16.1 kmh W 15.0 mph24.1 kmh 29.54 in1000.3 mb 0.00 in0.0 mm 0.00 in0.0 mm 0.07 in1.8 mm
10:30 AM 45.1°F7.3°C 42.9°F6.1°C 92% 11.0 mph WSW17.7 kmh WSW 14.0 mph22.5 kmh 29.55 in1000.7 mb 0.00 in0.0 mm 0.00 in0.0 mm 0.07 in1.8 mm
10:15 AM 45.0°F7.2°C 42.8°F6.0°C 92% 10.0 mph WSW16.1 kmh WSW 14.0 mph22.5 kmh 29.55 in1000.7 mb 0.00 in0.0 mm 0.00 in0.0 mm 0.07 in1.8 mm
10:00 AM 44.6°F7.0°C 42.7°F5.9°C 93% 10.0 mph W16.1 kmh W 16.0 mph25.7 kmh 29.56 in1001.0 mb 0.00 in0.0 mm 0.00 in0.0 mm 0.07 in1.8 mm
09:45 AM 44.6°F7.0°C 42.7°F5.9°C 93% 10.0 mph WSW16.1 kmh WSW 14.0 mph22.5 kmh 29.55 in1000.7 mb 0.00 in0.0 mm 0.00 in0.0 mm 0.07 in1.8 mm
09:30 AM 44.5°F6.9°C 42.6°F5.9°C 93% 9.0 mph WSW14.5 kmh WSW 13.0 mph20.9 kmh 29.55 in1000.7 mb 0.00 in0.0 mm 0.00 in0.0 mm 0.07 in1.8 mm
09:15 AM 44.1°F6.7°C 42.2°F5.7°C 93% 9.0 mph WSW14.5 kmh WSW 13.0 mph20.9 kmh 29.55 in1000.7 mb 0.00 in0.0 mm 0.00 in0.0 mm 0.07 in1.8 mm
09:00 AM 43.7°F6.5°C 42.1°F5.6°C 94% 9.0 mph W14.5 kmh W 12.0 mph19.3 kmh 29.55 in1000.7 mb 0.00 in0.0 mm 0.00 in0.0 mm 0.07 in1.8 mm
08:45 AM 43.7°F6.5°C 42.1°F5.6°C 94% 9.0 mph WSW14.5 kmh WSW 13.0 mph20.9 kmh 29.55 in1000.7 mb 0.00 in0.0 mm 0.00 in0.0 mm 0.07 in1.8 mm
08:30 AM 43.5°F6.4°C 42.2°F5.7°C 95% 10.0 mph WSW16.1 kmh WSW 14.0 mph22.5 kmh 29.55 in1000.7 mb 0.00 in0.0 mm 0.00 in0.0 mm 0.07 in1.8 mm
08:15 AM 43.5°F6.4°C 42.2°F5.7°C 95% 10.0 mph WSW16.1 kmh WSW 13.0 mph20.9 kmh 29.55 in1000.7 mb 0.00 in0.0 mm 0.00 in0.0 mm 0.07 in1.8 mm
08:00 AM 43.7°F6.5°C 42.4°F5.8°C 95% 9.0 mph W14.5 kmh W 14.0 mph22.5 kmh 29.55 in1000.7 mb 0.00 in0.0 mm 0.00 in0.0 mm 0.07 in1.8 mm
07:45 AM 43.4°F6.3°C 42.1°F5.6°C 95% 11.0 mph W17.7 kmh W 15.0 mph24.1 kmh 29.54 in1000.3 mb 0.00 in0.0 mm 0.00 in0.0 mm 0.07 in1.8 mm
07:30 AM 43.7°F6.5°C 42.4°F5.8°C 95% 9.0 mph WSW14.5 kmh WSW 14.0 mph22.5 kmh 29.54 in1000.3 mb 0.00 in0.0 mm 0.00 in0.0 mm 0.07 in1.8 mm
07:15 AM 43.7°F6.5°C 42.1°F5.6°C 94% 9.0 mph WSW14.5 kmh WSW 12.0 mph19.3 kmh 29.54 in1000.3 mb 0.00 in0.0 mm 0.00 in0.0 mm 0.07 in1.8 mm
07:00 AM 43.8°F6.6°C 42.2°F5.7°C 94% 8.0 mph WSW12.9 kmh WSW 14.0 mph22.5 kmh 29.54 in1000.3 mb 0.00 in0.0 mm 0.00 in0.0 mm 0.07 in1.8 mm
06:45 AM 43.8°F6.6°C 42.2°F5.7°C 94% 8.0 mph WSW12.9 kmh WSW 11.0 mph17.7 kmh 29.53 in1000.0 mb 0.00 in0.0 mm 0.00 in0.0 mm 0.07 in1.8 mm
06:30 AM 43.8°F6.6°C 42.2°F5.7°C 94% 6.0 mph WSW9.7 kmh WSW 11.0 mph17.7 kmh 29.53 in1000.0 mb 0.00 in0.0 mm 0.00 in0.0 mm 0.07 in1.8 mm
06:15 AM 44.0°F6.7°C 42.4°F5.8°C 94% 6.0 mph WSW9.7 kmh WSW 9.0 mph14.5 kmh 29.53 in1000.0 mb 0.00 in0.0 mm 0.00 in0.0 mm 0.07 in1.8 mm
06:00 AM 43.9°F6.6°C 42.0°F5.6°C 93% 8.0 mph WSW12.9 kmh WSW 11.0 mph17.7 kmh 29.53 in1000.0 mb 0.01 in0.3 mm 0.00 in0.0 mm 0.07 in1.8 mm
05:45 AM 44.1°F6.7°C 42.2°F5.7°C 93% 9.0 mph WSW14.5 kmh WSW 15.0 mph24.1 kmh 29.53 in1000.0 mb 0.01 in0.3 mm 0.00 in0.0 mm 0.07 in1.8 mm
05:30 AM 44.5°F6.9°C 42.6°F5.9°C 93% 10.0 mph WSW16.1 kmh WSW 16.0 mph25.7 kmh 29.53 in1000.0 mb 0.02 in0.5 mm 0.00 in0.0 mm 0.07 in1.8 mm
05:15 AM 44.9°F7.2°C 43.3°F6.3°C 94% 8.0 mph SW12.9 kmh SW 14.0 mph22.5 kmh 29.53 in1000.0 mb 0.02 in0.5 mm 0.00 in0.0 mm 0.07 in1.8 mm
05:00 AM 45.2°F7.3°C 43.9°F6.6°C 95% 4.0 mph SW6.4 kmh SW 7.0 mph11.3 kmh 29.53 in1000.0 mb 0.03 in0.8 mm 0.00 in0.0 mm 0.06 in1.5 mm
04:45 AM 45.4°F7.4°C 44.1°F6.7°C 95% 6.0 mph SW9.7 kmh SW 8.0 mph12.9 kmh 29.54 in1000.3 mb 0.03 in0.8 mm 0.04 in1.0 mm 0.06 in1.5 mm
04:30 AM 45.5°F7.5°C 44.2°F6.8°C 95% 3.0 mph SW4.8 kmh SW 6.0 mph9.7 kmh 29.54 in1000.3 mb 0.02 in0.5 mm 0.00 in0.0 mm 0.05 in1.3 mm
04:15 AM 45.4°F7.4°C 44.1°F6.7°C 95% 6.0 mph SW9.7 kmh SW 6.0 mph9.7 kmh 29.54 in1000.3 mb 0.02 in0.5 mm 0.08 in2.0 mm 0.05 in1.3 mm
04:00 AM 45.9°F7.7°C 44.3°F6.8°C 94% 9.0 mph WSW14.5 kmh WSW 12.0 mph19.3 kmh 29.55 in1000.7 mb 0.00 in0.0 mm 0.00 in0.0 mm 0.03 in0.8 mm
03:45 AM 46.5°F8.1°C 45.1°F7.3°C 95% 5.0 mph WSW8.0 kmh WSW 8.0 mph12.9 kmh 29.54 in1000.3 mb 0.00 in0.0 mm 0.00 in0.0 mm 0.03 in0.8 mm
03:30 AM 46.5°F8.1°C 45.1°F7.3°C 95% 3.0 mph SW4.8 kmh SW 5.0 mph8.0 kmh 29.54 in1000.3 mb 0.00 in0.0 mm 0.00 in0.0 mm 0.03 in0.8 mm
03:15 AM 46.5°F8.1°C 45.1°F7.3°C 95% 2.0 mph WSW3.2 kmh WSW 3.0 mph4.8 kmh 29.54 in1000.3 mb 0.01 in0.3 mm 0.00 in0.0 mm 0.03 in0.8 mm
03:00 AM 46.4°F8.0°C 45.0°F7.2°C 95% 2.0 mph WSW3.2 kmh WSW 4.0 mph6.4 kmh 29.55 in1000.7 mb 0.03 in0.8 mm 0.00 in0.0 mm 0.03 in0.8 mm
02:45 AM 46.5°F8.1°C 45.1°F7.3°C 95% 2.0 mph WSW3.2 kmh WSW 4.0 mph6.4 kmh 29.55 in1000.7 mb 0.03 in0.8 mm 0.00 in0.0 mm 0.03 in0.8 mm
02:30 AM 46.6°F8.1°C 45.2°F7.3°C 95% 3.0 mph WSW4.8 kmh WSW 5.0 mph8.0 kmh 29.55 in1000.7 mb 0.03 in0.8 mm 0.04 in1.0 mm 0.03 in0.8 mm
02:15 AM 46.9°F8.3°C 45.3°F7.4°C 94% 5.0 mph WSW8.0 kmh WSW 9.0 mph14.5 kmh 29.55 in1000.7 mb 0.02 in0.5 mm 0.08 in2.0 mm 0.02 in0.5 mm
02:00 AM 47.3°F8.5°C 45.4°F7.4°C 93% 5.0 mph SW8.0 kmh SW 9.0 mph14.5 kmh 29.56 in1001.0 mb 0.00 in0.0 mm 0.00 in0.0 mm 0.00 in0.0 mm
01:45 AM 47.3°F8.5°C 45.4°F7.4°C 93% 6.0 mph SW9.7 kmh SW 11.0 mph17.7 kmh 29.56 in1001.0 mb 0.00 in0.0 mm 0.00 in0.0 mm 0.00 in0.0 mm
01:30 AM 47.0°F8.3°C 45.4°F7.4°C 94% 3.0 mph SW4.8 kmh SW 6.0 mph9.7 kmh 29.56 in1001.0 mb 0.00 in0.0 mm 0.00 in0.0 mm 0.00 in0.0 mm
01:15 AM 45.9°F7.7°C 44.3°F6.8°C 94% Calm Calm -- 29.56 in1001.0 mb 0.00 in0.0 mm 0.00 in0.0 mm 0.00 in0.0 mm
01:00 AM 46.3°F7.9°C 44.4°F6.9°C 93% Calm Calm -- 29.56 in1001.0 mb 0.00 in0.0 mm 0.00 in0.0 mm 0.00 in0.0 mm
12:45 AM 46.4°F8.0°C 44.5°F6.9°C 93% Calm Calm -- 29.56 in1001.0 mb 0.00 in0.0 mm 0.00 in0.0 mm 0.00 in0.0 mm
12:30 AM 46.5°F8.1°C 44.6°F7.0°C 93% Calm Calm -- 29.57 in1001.4 mb 0.00 in0.0 mm 0.00 in0.0 mm 0.00 in0.0 mm
12:15 AM 46.4°F8.0°C 44.5°F6.9°C 93% Calm Calm -- 29.57 in1001.4 mb 0.00 in0.0 mm 0.00 in0.0 mm 0.00 in0.0 mm
12:00 AM 46.6°F8.1°C 44.4°F6.9°C 92% Calm Calm -- 29.57 in1001.4 mb 0.00 in0.0 mm 0.00 in0.0 mm 0.00 in0.0 mm